Messwerte Salem

Temperatur

Temperatur
°C
1594180800 21.00 21.00 17
1594184400 22.00 22.00 16
1594188000 23.00 23.00 15
1594191600 0.00 0.00 14
1594195200 1.00 1.00 13
1594198800 2.00 2.00 14
1594202400 3.00 3.00
1594206000 4.00 4.00 14
1594209600 5.00 5.00 14
1594213200 6.00 6.00 14
1594216800 7.00 7.00 15
1594220400 8.00 8.00 16
1594224000 9.00 9.00
1594227600 10.00 10.00 17
1594231200 11.00 11.00 19
1594234800 12.00 12.00 21
1594238400 13.00 13.00 21
1594242000 14.00 14.00 22
1594245600 15.00 15.00 23
1594249200 16.00 16.00 24
1594252800 17.00 17.00 24
1594256400 18.00 18.00 24
1594260000 19.00 19.00 24
1594263600 20.00 20.00 23

Aktuellste Messwerte

Wettercharakter
Wetter: klar
Temperatur
20 °C
Feuchtigkeit
55 %
Wind
20 km/hWindrichtung: Nordwest
Luftdruck
1016 hPa
Messzeit: 8. Juli 2020, 21.00Datenquelle: METAR

Weitere Messstationen in der Nähe

Messstation Temperatur Entfernung
McMinnville 21 °C 31 km
Aurora 21 °C 42 km
Corvallis 19 °C 51 km
Portland 20 °C 69 km
Portland 21 °C 82 km
Vancouver 21 °C 83 km
Portland 21 °C 85 km

Wind

Windrichtung Böen Mittelwind
° km/h km/h
1594180800 21.00 20.00 - 21.00 320° 15
1594184400 22.00 21.00 - 22.00 300° 15
1594188000 23.00 22.00 - 23.00 310° 10
1594191600 0.00 23.00 - 0.00 290° 15
1594195200 1.00 0.00 - 1.00 280° 5
1594198800 2.00 1.00 - 2.00 290° 5
1594202400 3.00 2.00 - 3.00
1594206000 4.00 3.00 - 4.00 310° 5
1594209600 5.00 4.00 - 5.00 0
1594213200 6.00 5.00 - 6.00 350° 5
1594216800 7.00 6.00 - 7.00 360° 5
1594220400 8.00 7.00 - 8.00 320° 10
1594224000 9.00 8.00 - 9.00
1594227600 10.00 9.00 - 10.00 350° 15
1594231200 11.00 10.00 - 11.00 10° 10
1594234800 12.00 11.00 - 12.00 340° 20
1594238400 13.00 12.00 - 13.00 5
1594242000 14.00 13.00 - 14.00 10
1594245600 15.00 14.00 - 15.00 320° 20
1594249200 16.00 15.00 - 16.00 360° 10
1594252800 17.00 16.00 - 17.00 360° 15
1594256400 18.00 17.00 - 18.00
1594260000 19.00 18.00 - 19.00 40° 30 15
1594263600 20.00 19.00 - 20.00 40° 15

Ihre Wetterstation

Fehlt Ihre Wetterstation auf unserem Portal?

Schreiben Sie an network@meteonews.ch

Klima

Wann ist es am wärmsten? Wann regnet es am wenigsten? Unsere Klimadaten geben Auskunft.